createdAt,value
2022-09-02T00:01:20.417Z,2.20
2022-09-02T00:03:47.544Z,2.15
2022-09-02T00:06:15.119Z,2.17
2022-09-02T00:08:43.015Z,1.90
2022-09-02T00:11:15.171Z,2.22
2022-09-02T00:13:43.818Z,1.80
2022-09-02T00:16:11.431Z,2.30
2022-09-02T00:18:39.749Z,2.15
2022-09-02T00:21:13.696Z,1.67
2022-09-02T00:23:42.401Z,2.20
2022-09-02T00:26:09.296Z,1.77
2022-09-02T00:28:36.079Z,1.73
2022-09-02T00:31:02.962Z,2.17
2022-09-02T00:33:31.544Z,2.17
2022-09-02T00:36:00.566Z,1.95
2022-09-02T00:38:27.345Z,1.95
2022-09-02T00:40:54.285Z,1.98
2022-09-02T00:43:46.509Z,1.70
2022-09-02T00:46:16.446Z,2.33
2022-09-02T00:48:49.409Z,1.52
2022-09-02T00:51:16.781Z,1.88
2022-09-02T00:53:46.459Z,1.80
2022-09-02T00:56:19.277Z,1.98
2022-09-02T00:58:47.450Z,2.22
2022-09-02T01:01:14.688Z,1.90
2022-09-02T01:03:42.211Z,2.50
2022-09-02T01:06:15.340Z,2.00
2022-09-02T01:08:54.368Z,1.80
2022-09-02T01:11:21.432Z,2.00
2022-09-02T01:13:48.068Z,1.55
2022-09-02T01:16:25.078Z,1.85
2022-09-02T01:18:55.419Z,2.25
2022-09-02T01:21:23.259Z,1.52
2022-09-02T01:23:51.146Z,1.70
2022-09-02T01:26:17.929Z,2.60
2022-09-02T01:28:44.698Z,1.80
2022-09-02T01:31:11.939Z,2.00
2022-09-02T01:33:39.228Z,1.55
2022-09-02T01:36:06.040Z,1.95
2022-09-02T01:38:33.241Z,1.73
2022-09-02T01:41:00.024Z,2.05
2022-09-02T01:43:28.164Z,1.98
2022-09-02T01:45:56.771Z,2.42
2022-09-02T01:48:26.964Z,1.95
2022-09-02T01:50:58.507Z,2.47
2022-09-02T01:53:26.543Z,1.73
2022-09-02T01:55:54.422Z,1.85
2022-09-02T01:58:22.017Z,2.00
2022-09-02T02:00:49.584Z,1.90
2022-09-02T02:03:16.441Z,2.05
2022-09-02T02:05:43.642Z,2.40
2022-09-02T02:08:13.859Z,2.13
2022-09-02T02:10:42.830Z,2.10
2022-09-02T02:13:11.733Z,1.95
2022-09-02T02:15:41.771Z,1.73
2022-09-02T02:18:09.417Z,2.15
2022-09-02T02:20:37.111Z,2.00
2022-09-02T02:23:05.653Z,1.95
2022-09-02T02:25:32.779Z,1.52
2022-09-02T02:27:59.483Z,2.70
2022-09-02T02:30:27.131Z,2.33
2022-09-02T02:32:54.155Z,2.20
2022-09-02T02:35:22.145Z,2.08
2022-09-02T02:37:50.544Z,2.10
2022-09-02T02:40:21.021Z,2.15
2022-09-02T02:42:49.798Z,2.53
2022-09-02T02:45:16.542Z,2.20
2022-09-02T02:47:46.123Z,2.42
2022-09-02T02:50:17.177Z,2.45
2022-09-02T02:52:45.620Z,3.03
2022-09-02T02:55:13.960Z,1.90
2022-09-02T02:57:42.895Z,3.25
2022-09-02T03:00:18.932Z,2.25
2022-09-02T03:02:48.146Z,3.42
2022-09-02T03:05:16.705Z,3.25
2022-09-02T03:07:43.359Z,1.98
2022-09-02T03:10:12.281Z,2.05
2022-09-02T03:12:41.575Z,2.30
2022-09-02T03:15:09.401Z,2.72
2022-09-02T03:17:36.367Z,2.03
2022-09-02T03:20:04.641Z,3.45
2022-09-02T03:22:38.827Z,2.25
2022-09-02T03:25:09.039Z,2.22
2022-09-02T03:27:40.349Z,2.47
2022-09-02T03:30:12.111Z,2.33
2022-09-02T03:32:39.972Z,2.22
2022-09-02T03:35:09.053Z,2.50
2022-09-02T03:37:37.317Z,2.65
2022-09-02T03:40:11.119Z,2.25
2022-09-02T03:42:38.584Z,1.80
2022-09-02T03:45:10.538Z,2.30
2022-09-02T03:50:06.900Z,2.80
2022-09-02T03:52:34.239Z,2.20
2022-09-02T03:55:01.349Z,2.10
2022-09-02T03:57:29.240Z,2.20
2022-09-02T04:02:22.439Z,2.30
2022-09-02T04:04:49.755Z,2.13
2022-09-02T04:07:16.367Z,2.08
2022-09-02T04:09:46.621Z,2.50
2022-09-02T04:12:13.723Z,2.30
2022-09-02T04:14:42.071Z,2.45
2022-09-02T04:17:09.524Z,2.50
2022-09-02T04:19:37.573Z,2.50
2022-09-02T04:22:05.060Z,2.78
2022-09-02T04:24:32.421Z,1.90
2022-09-02T04:27:03.837Z,2.60
2022-09-02T04:29:33.564Z,2.10
2022-09-02T04:32:00.650Z,3.83
2022-09-02T04:34:27.506Z,2.65
2022-09-02T04:36:54.260Z,2.38
2022-09-02T04:39:21.277Z,2.03
2022-09-02T04:41:49.419Z,2.70
2022-09-02T04:44:16.745Z,2.35
2022-09-02T04:46:46.968Z,2.88
2022-09-02T04:49:17.927Z,2.53
2022-09-02T04:51:45.753Z,2.45
2022-09-02T04:54:12.440Z,2.53
2022-09-02T04:56:43.092Z,2.78
2022-09-02T04:59:11.197Z,3.13
2022-09-02T05:01:42.829Z,2.13
2022-09-02T05:04:15.235Z,2.38
2022-09-02T05:06:47.086Z,2.70
2022-09-02T05:09:23.101Z,2.75
2022-09-02T05:11:57.914Z,2.40
2022-09-02T05:14:28.339Z,3.33
2022-09-02T05:17:02.790Z,2.90
2022-09-02T05:19:32.383Z,3.03
2022-09-02T05:22:01.892Z,2.33
2022-09-02T05:24:33.978Z,2.47
2022-09-02T05:29:35.544Z,2.63
2022-09-02T05:32:04.170Z,3.33
2022-09-02T05:34:33.465Z,2.75
2022-09-02T05:37:03.316Z,2.65
2022-09-02T05:39:32.001Z,3.90
2022-09-02T05:42:00.468Z,2.35
2022-09-02T05:44:29.206Z,2.67
2022-09-02T05:46:57.288Z,3.10
2022-09-02T05:49:23.988Z,2.28
2022-09-02T05:52:13.544Z,3.85
2022-09-02T05:54:44.449Z,2.92
2022-09-02T05:57:16.038Z,3.20
2022-09-02T05:59:56.024Z,3.38
2022-09-02T06:02:26.781Z,2.97
2022-09-02T06:04:54.805Z,2.75
2022-09-02T06:07:24.259Z,3.17
2022-09-02T06:09:52.792Z,3.03
2022-09-02T06:12:23.551Z,3.22
2022-09-02T06:14:50.685Z,3.17
2022-09-02T06:17:21.994Z,3.33
2022-09-02T06:19:52.707Z,3.13
2022-09-02T06:22:22.453Z,2.70
2022-09-02T06:24:49.066Z,3.30
2022-09-02T06:27:21.476Z,2.95
2022-09-02T06:29:52.122Z,3.15
2022-09-02T06:32:21.194Z,3.70
2022-09-02T06:34:50.235Z,3.42
2022-09-02T06:37:16.937Z,5.15
2022-09-02T06:39:44.801Z,3.22
2022-09-02T06:42:16.584Z,4.30
2022-09-02T06:44:59.355Z,3.15
2022-09-02T06:47:26.728Z,3.20
2022-09-02T06:49:53.340Z,3.10
2022-09-02T06:52:21.017Z,3.53
2022-09-02T06:54:50.040Z,3.15
2022-09-02T06:57:17.333Z,3.10
2022-09-02T06:59:44.160Z,2.90
2022-09-02T07:02:12.788Z,2.83
2022-09-02T07:05:00.324Z,2.83
2022-09-02T07:07:27.102Z,3.20
2022-09-02T07:10:04.466Z,2.75
2022-09-02T07:12:35.672Z,3.08
2022-09-02T07:15:08.577Z,2.90
2022-09-02T07:17:39.096Z,2.70
2022-09-02T07:20:10.829Z,2.80
2022-09-02T07:22:42.782Z,2.58
2022-09-02T07:25:13.688Z,2.50
2022-09-02T07:27:40.395Z,3.17
2022-09-02T07:30:08.102Z,2.90
2022-09-02T07:32:38.975Z,3.25
2022-09-02T07:35:07.821Z,3.13
2022-09-02T07:37:35.811Z,2.47
2022-09-02T07:40:07.056Z,2.60
2022-09-02T07:42:34.279Z,2.55
2022-09-02T07:47:29.340Z,2.88
2022-09-02T07:52:43.958Z,2.88
2022-09-02T07:55:14.948Z,3.17
2022-09-02T07:57:44.070Z,3.40
2022-09-02T08:00:12.329Z,3.58
2022-09-02T08:02:42.891Z,2.13
2022-09-02T08:05:13.768Z,2.70
2022-09-02T08:07:40.409Z,2.20
2022-09-02T08:10:10.596Z,3.17
2022-09-02T08:12:37.903Z,2.65
2022-09-02T08:15:05.563Z,2.83
2022-09-02T08:17:32.675Z,2.08
2022-09-02T08:19:59.295Z,2.10
2022-09-02T08:22:27.026Z,1.90
2022-09-02T08:24:53.592Z,1.52
2022-09-02T08:27:20.356Z,2.05
2022-09-02T08:29:46.872Z,1.90
2022-09-02T08:32:13.823Z,1.83
2022-09-02T08:34:40.448Z,1.83
2022-09-02T08:37:07.205Z,1.88
2022-09-02T08:39:33.804Z,1.55
2022-09-02T08:42:18.896Z,1.75
2022-09-02T08:44:46.791Z,1.60
2022-09-02T08:47:21.820Z,1.15
2022-09-02T08:49:51.385Z,2.17
2022-09-02T08:52:33.331Z,2.20
2022-09-02T08:55:00.987Z,2.03
2022-09-02T08:57:27.639Z,1.30
2022-09-02T09:00:01.078Z,1.70
2022-09-02T09:02:57.842Z,2.95
2022-09-02T09:05:33.724Z,1.40
2022-09-02T09:08:13.900Z,1.38
2022-09-02T09:10:54.857Z,1.67
2022-09-02T09:13:41.572Z,1.50
2022-09-02T09:16:14.807Z,1.42
2022-09-02T09:18:57.083Z,1.48
2022-09-02T09:23:55.581Z,3.20
2022-09-02T09:26:30.209Z,1.45
2022-09-02T09:28:59.379Z,1.70
2022-09-02T09:31:31.276Z,1.42
2022-09-02T09:34:00.398Z,1.27
2022-09-02T09:36:39.652Z,1.13
2022-09-02T09:39:27.170Z,1.00
2022-09-02T09:42:02.905Z,1.00
2022-09-02T09:44:38.541Z,1.00
2022-09-02T09:47:08.694Z,1.27
2022-09-02T09:49:36.837Z,1.10
2022-09-02T09:52:04.537Z,1.27
2022-09-02T09:54:31.305Z,1.10
2022-09-02T09:57:15.135Z,0.70
2022-09-02T09:59:47.527Z,1.20
2022-09-02T10:02:23.855Z,1.30
2022-09-02T10:04:53.936Z,1.42
2022-09-02T10:07:41.461Z,1.20
2022-09-02T10:10:24.140Z,1.10
2022-09-02T10:12:53.985Z,0.90
2022-09-02T10:15:38.766Z,1.33
2022-09-02T10:18:31.197Z,1.50
2022-09-02T10:21:24.025Z,1.48
2022-09-02T10:24:15.715Z,1.55
2022-09-02T10:26:51.162Z,1.45
2022-09-02T10:29:40.110Z,1.58
2022-09-02T10:32:12.812Z,1.25
2022-09-02T10:34:45.801Z,1.80
2022-09-02T10:37:19.129Z,1.20
2022-09-02T10:40:02.529Z,1.65
2022-09-02T10:42:36.039Z,1.65
2022-09-02T10:45:13.189Z,1.25
2022-09-02T10:47:40.777Z,1.20
2022-09-02T10:50:14.090Z,1.20
2022-09-02T10:52:43.779Z,1.10
2022-09-02T10:57:59.559Z,0.95
2022-09-02T11:00:31.165Z,1.27
2022-09-02T11:03:12.606Z,1.60
2022-09-02T11:05:58.512Z,1.20
2022-09-02T11:08:41.491Z,1.00
2022-09-02T11:11:21.280Z,1.45
2022-09-02T11:14:26.247Z,1.23
2022-09-02T11:17:02.419Z,1.30
2022-09-02T11:19:55.721Z,1.10
2022-09-02T11:22:35.176Z,1.20
2022-09-02T11:25:20.340Z,1.33
2022-09-02T11:27:55.166Z,1.02
2022-09-02T11:30:25.587Z,1.48
2022-09-02T11:33:17.318Z,2.50
2022-09-02T11:35:45.024Z,2.53
2022-09-02T11:38:30.061Z,2.30
2022-09-02T11:41:38.930Z,1.70
2022-09-02T11:44:36.339Z,1.23
2022-09-02T11:47:45.491Z,0.70
2022-09-02T11:50:39.592Z,0.90
2022-09-02T11:53:41.184Z,1.35
2022-09-02T11:56:20.027Z,1.53
2022-09-02T11:58:52.463Z,1.20
2022-09-02T12:01:25.788Z,1.10
2022-09-02T12:07:14.867Z,0.73
2022-09-02T12:09:45.969Z,1.15
2022-09-02T12:12:37.582Z,1.03
2022-09-02T12:15:07.545Z,1.50
2022-09-02T12:17:40.162Z,1.30
2022-09-02T12:20:12.750Z,1.02
2022-09-02T12:22:40.232Z,1.23
2022-09-02T12:25:26.897Z,1.10
2022-09-02T12:28:31.197Z,1.67
2022-09-02T12:31:08.796Z,1.65
2022-09-02T12:35:54.337Z,1.20
2022-09-02T12:38:39.051Z,1.77
2022-09-02T12:41:07.808Z,1.23
2022-09-02T12:46:20.928Z,1.17
2022-09-02T12:49:01.617Z,1.35
2022-09-02T12:51:55.304Z,1.60
2022-09-02T12:54:26.781Z,1.50
2022-09-02T12:56:56.467Z,1.35
2022-09-02T12:59:31.359Z,1.20
2022-09-02T13:02:30.328Z,1.70
2022-09-02T13:05:37.949Z,1.33
2022-09-02T13:08:07.232Z,1.25
2022-09-02T13:11:03.098Z,1.30
2022-09-02T13:13:51.307Z,1.30
2022-09-02T13:19:20.036Z,1.88
2022-09-02T13:22:24.000Z,1.42
2022-09-02T13:25:10.852Z,1.20
2022-09-02T13:28:00.935Z,1.20
2022-09-02T13:30:55.447Z,1.58
2022-09-02T13:33:22.225Z,0.88
2022-09-02T13:35:54.636Z,1.05
2022-09-02T13:38:25.282Z,1.45
2022-09-02T13:40:54.700Z,1.45
2022-09-02T13:43:27.300Z,1.17
2022-09-02T13:46:02.175Z,1.17
2022-09-02T13:48:32.772Z,1.10
2022-09-02T13:51:09.064Z,1.60
2022-09-02T13:53:53.683Z,1.23
2022-09-02T13:56:30.557Z,1.35
2022-09-02T13:58:57.169Z,1.20
2022-09-02T14:01:29.706Z,1.10
2022-09-02T14:03:59.418Z,1.30
2022-09-02T14:06:33.218Z,1.83
2022-09-02T14:09:02.608Z,1.15
2022-09-02T14:11:41.889Z,1.20
2022-09-02T14:14:12.860Z,1.45
2022-09-02T14:16:39.420Z,1.17
2022-09-02T14:19:15.077Z,1.23
2022-09-02T14:21:56.452Z,1.35
2022-09-02T14:24:29.103Z,1.10
2022-09-02T14:26:57.834Z,1.08
2022-09-02T14:29:26.240Z,1.60
2022-09-02T14:32:15.871Z,1.55
2022-09-02T14:34:47.740Z,1.45
2022-09-02T14:40:01.679Z,1.45
2022-09-02T14:42:29.464Z,1.50
2022-09-02T14:44:59.281Z,1.30
2022-09-02T14:47:28.139Z,1.60
2022-09-02T14:49:56.121Z,1.50
2022-09-02T14:52:28.608Z,1.30
2022-09-02T14:54:56.923Z,1.60
2022-09-02T14:57:23.483Z,1.50
2022-09-02T14:59:51.131Z,1.63
2022-09-02T15:02:22.243Z,1.70
2022-09-02T15:04:49.120Z,1.40
2022-09-02T15:07:15.895Z,1.38
2022-09-02T15:09:44.417Z,2.08
2022-09-02T15:12:12.699Z,1.77
2022-09-02T15:14:39.676Z,1.55
2022-09-02T15:17:10.284Z,1.90
2022-09-02T15:19:36.927Z,1.67
2022-09-02T15:22:03.515Z,1.60
2022-09-02T15:24:30.197Z,1.92
2022-09-02T15:26:56.749Z,1.95
2022-09-02T15:29:28.698Z,1.58
2022-09-02T15:31:55.723Z,1.55
2022-09-02T15:34:26.381Z,1.95
2022-09-02T15:36:55.233Z,1.65
2022-09-02T15:39:22.876Z,1.77
2022-09-02T15:41:50.108Z,1.35
2022-09-02T15:44:17.955Z,1.23
2022-09-02T15:46:45.606Z,1.35
2022-09-02T15:49:15.753Z,1.58
2022-09-02T15:51:45.283Z,1.33
2022-09-02T15:54:16.392Z,1.33
2022-09-02T15:56:45.369Z,2.13
2022-09-02T15:59:13.204Z,1.55
2022-09-02T16:01:43.712Z,2.05
2022-09-02T16:04:11.695Z,1.83
2022-09-02T16:06:40.389Z,1.88
2022-09-02T16:09:14.358Z,1.88
2022-09-02T16:11:46.943Z,1.98
2022-09-02T16:14:14.939Z,1.80
2022-09-02T16:16:48.152Z,1.73
2022-09-02T16:19:15.269Z,2.00
2022-09-02T16:21:42.208Z,1.58
2022-09-02T16:24:09.361Z,1.75
2022-09-02T16:26:40.568Z,1.88
2022-09-02T16:29:10.441Z,1.92
2022-09-02T16:31:39.703Z,1.70
2022-09-02T16:34:09.257Z,1.80
2022-09-02T16:36:38.254Z,1.88
2022-09-02T16:39:06.128Z,1.95
2022-09-02T16:41:35.112Z,1.73
2022-09-02T16:44:05.704Z,2.15
2022-09-02T16:46:33.297Z,1.75
2022-09-02T16:49:00.213Z,1.77
2022-09-02T16:51:27.674Z,2.55
2022-09-02T16:53:56.519Z,1.70
2022-09-02T16:56:24.182Z,1.67
2022-09-02T16:58:52.611Z,1.60
2022-09-02T17:01:21.992Z,2.13
2022-09-02T17:03:50.570Z,2.22
2022-09-02T17:06:18.189Z,1.60
2022-09-02T17:08:44.868Z,1.65
2022-09-02T17:11:25.760Z,1.70
2022-09-02T17:13:57.588Z,2.40
2022-09-02T17:16:26.820Z,2.05
2022-09-02T17:18:54.741Z,2.95
2022-09-02T17:21:26.506Z,2.15
2022-09-02T17:23:54.318Z,2.10
2022-09-02T17:26:23.251Z,1.92
2022-09-02T17:28:53.222Z,2.00
2022-09-02T17:31:31.529Z,1.77
2022-09-02T17:34:00.332Z,1.83
2022-09-02T17:36:29.260Z,1.50
2022-09-02T17:38:57.516Z,2.40
2022-09-02T17:41:43.923Z,2.00
2022-09-02T17:44:12.132Z,1.90
2022-09-02T17:46:38.716Z,2.25
2022-09-02T17:49:16.810Z,1.73
2022-09-02T17:51:44.809Z,2.38
2022-09-02T17:54:12.316Z,1.95
2022-09-02T17:57:03.935Z,2.38
2022-09-02T17:59:42.388Z,2.33
2022-09-02T18:02:14.766Z,2.90
2022-09-02T18:04:59.645Z,2.05
2022-09-02T18:08:00.951Z,2.45
2022-09-02T18:10:34.404Z,2.05
2022-09-02T18:13:08.008Z,2.30
2022-09-02T18:16:06.300Z,2.10
2022-09-02T18:19:07.697Z,1.70
2022-09-02T18:22:06.273Z,2.63
2022-09-02T18:24:58.089Z,2.67
2022-09-02T18:27:44.922Z,1.92
2022-09-02T18:30:27.985Z,2.80
2022-09-02T18:32:55.959Z,3.40
2022-09-02T18:35:25.297Z,2.67
2022-09-02T18:38:21.475Z,2.97
2022-09-02T18:41:07.013Z,4.35
2022-09-02T18:44:09.325Z,3.28
2022-09-02T18:46:49.425Z,2.92
2022-09-02T18:49:17.114Z,3.45
2022-09-02T18:51:45.027Z,3.42
2022-09-02T18:54:23.696Z,3.95
2022-09-02T18:56:57.433Z,3.00
2022-09-02T19:00:05.873Z,3.60
2022-09-02T19:02:42.337Z,3.17
2022-09-02T19:05:12.831Z,3.50
2022-09-02T19:07:58.138Z,4.20
2022-09-02T19:10:24.894Z,3.67
2022-09-02T19:12:54.679Z,3.50
2022-09-02T19:15:21.660Z,3.90
2022-09-02T19:17:49.562Z,3.63
2022-09-02T19:20:16.581Z,4.10
2022-09-02T19:22:47.955Z,3.75
2022-09-02T19:25:20.017Z,2.97
2022-09-02T19:30:22.460Z,3.25
2022-09-02T19:32:52.633Z,3.58
2022-09-02T19:35:27.688Z,3.85
2022-09-02T19:37:56.188Z,3.13
2022-09-02T19:40:26.477Z,3.05
2022-09-02T19:42:53.950Z,2.83
2022-09-02T19:45:22.244Z,2.45
2022-09-02T19:48:08.887Z,3.55
2022-09-02T19:50:42.679Z,2.92
2022-09-02T19:53:30.533Z,3.33
2022-09-02T19:55:58.616Z,3.25
2022-09-02T19:58:29.674Z,3.50
2022-09-02T20:00:57.188Z,2.67
2022-09-02T20:03:23.990Z,2.90
2022-09-02T20:05:57.647Z,2.88
2022-09-02T20:08:30.956Z,3.30
2022-09-02T20:11:03.370Z,3.00
2022-09-02T20:13:37.400Z,3.83
2022-09-02T20:16:20.458Z,3.25
2022-09-02T20:18:49.962Z,3.25
2022-09-02T20:21:24.541Z,3.67
2022-09-02T20:23:53.746Z,3.05
2022-09-02T20:26:29.784Z,2.83
2022-09-02T20:29:08.888Z,2.88
2022-09-02T20:32:14.583Z,2.67
2022-09-02T20:35:11.536Z,3.83
2022-09-02T20:37:50.952Z,2.58
2022-09-02T20:40:48.417Z,2.70
2022-09-02T20:43:23.141Z,2.33
2022-09-02T20:46:19.459Z,3.00
2022-09-02T20:49:18.375Z,2.67
2022-09-02T20:51:54.188Z,2.42
2022-09-02T20:54:53.014Z,2.88
2022-09-02T20:58:17.743Z,2.90
2022-09-02T21:01:06.539Z,2.72
2022-09-02T21:04:21.114Z,2.53
2022-09-02T21:07:03.047Z,2.45
2022-09-02T21:09:41.285Z,2.50
2022-09-02T21:12:37.403Z,2.33
2022-09-02T21:15:14.169Z,2.42
2022-09-02T21:17:49.690Z,3.70
2022-09-02T21:20:36.972Z,2.42
2022-09-02T21:23:11.072Z,1.90
2022-09-02T21:25:55.851Z,2.40
2022-09-02T21:28:32.524Z,2.58
2022-09-02T21:33:22.773Z,2.35
2022-09-02T21:35:51.457Z,2.92
2022-09-02T21:38:24.268Z,3.00
2022-09-02T21:41:31.843Z,2.90
2022-09-02T21:44:17.034Z,1.92
2022-09-02T21:47:01.458Z,2.63
2022-09-02T21:49:49.627Z,2.72
2022-09-02T21:52:26.732Z,1.85
2022-09-02T21:55:19.120Z,2.20
2022-09-02T22:00:22.985Z,2.75
2022-09-02T22:02:57.996Z,2.05
2022-09-02T22:05:47.532Z,2.67
2022-09-02T22:08:16.934Z,2.03
2022-09-02T22:11:08.675Z,2.28
2022-09-02T22:13:37.740Z,2.72
2022-09-02T22:16:19.741Z,2.20
2022-09-02T22:19:01.394Z,2.08
2022-09-02T22:21:48.015Z,2.42
2022-09-02T22:24:16.576Z,3.08
2022-09-02T22:27:03.312Z,2.28
2022-09-02T22:29:49.188Z,2.35
2022-09-02T22:32:20.192Z,2.28
2022-09-02T22:37:06.193Z,2.20
2022-09-02T22:39:38.637Z,2.33
2022-09-02T22:42:17.793Z,2.17
2022-09-02T22:45:11.017Z,3.40
2022-09-02T22:48:04.076Z,1.90
2022-09-02T22:50:55.573Z,2.30
2022-09-02T22:53:22.217Z,2.27
2022-09-02T22:55:58.532Z,2.28
2022-09-02T22:58:51.317Z,3.28
2022-09-02T23:01:42.896Z,2.22
2022-09-02T23:04:32.348Z,3.20
2022-09-02T23:07:04.991Z,2.35
2022-09-02T23:12:27.673Z,2.42
2022-09-02T23:15:08.498Z,2.17
2022-09-02T23:18:12.779Z,2.63
2022-09-02T23:20:48.216Z,2.30
2022-09-02T23:23:38.779Z,2.30
2022-09-02T23:26:22.909Z,2.28
2022-09-02T23:29:05.540Z,2.20
2022-09-02T23:31:32.311Z,3.05
2022-09-02T23:34:03.148Z,2.78
2022-09-02T23:36:59.824Z,3.03
2022-09-02T23:39:43.610Z,2.35
2022-09-02T23:42:11.874Z,2.78
2022-09-02T23:44:38.563Z,2.40
2022-09-02T23:47:37.611Z,2.13
2022-09-02T23:50:07.253Z,3.90
2022-09-02T23:53:01.558Z,3.45
2022-09-02T23:55:44.228Z,2.60
2022-09-02T23:58:20.355Z,2.25
